sensor_id;sensor_type;location;lat;lon;timestamp;P1;durP1;ratioP1;P2;durP2;ratioP2
14484;SDS011;7328;50.812;4.422;2022-11-11T00:01:36;14.90;;;9.07;;
14484;SDS011;7328;50.812;4.422;2022-11-11T00:04:02;8.77;;;7.97;;
14484;SDS011;7328;50.812;4.422;2022-11-11T00:06:28;9.33;;;7.83;;
14484;SDS011;7328;50.812;4.422;2022-11-11T00:08:53;11.33;;;9.17;;
14484;SDS011;7328;50.812;4.422;2022-11-11T00:11:19;14.43;;;10.33;;
14484;SDS011;7328;50.812;4.422;2022-11-11T00:13:45;11.00;;;8.67;;
14484;SDS011;7328;50.812;4.422;2022-11-11T00:18:38;9.70;;;8.73;;
14484;SDS011;7328;50.812;4.422;2022-11-11T00:21:24;14.87;;;9.93;;
14484;SDS011;7328;50.812;4.422;2022-11-11T00:27:16;9.47;;;7.53;;
14484;SDS011;7328;50.812;4.422;2022-11-11T00:29:45;13.03;;;8.07;;
14484;SDS011;7328;50.812;4.422;2022-11-11T00:32:11;11.53;;;8.87;;
14484;SDS011;7328;50.812;4.422;2022-11-11T00:34:53;8.47;;;7.23;;
14484;SDS011;7328;50.812;4.422;2022-11-11T00:37:39;21.83;;;8.50;;
14484;SDS011;7328;50.812;4.422;2022-11-11T00:40:06;13.70;;;10.40;;
14484;SDS011;7328;50.812;4.422;2022-11-11T00:42:33;10.83;;;9.60;;
14484;SDS011;7328;50.812;4.422;2022-11-11T00:44:59;9.57;;;8.17;;
14484;SDS011;7328;50.812;4.422;2022-11-11T00:47:25;12.27;;;8.83;;
14484;SDS011;7328;50.812;4.422;2022-11-11T00:52:58;10.73;;;7.53;;
14484;SDS011;7328;50.812;4.422;2022-11-11T00:55:24;12.87;;;8.03;;
14484;SDS011;7328;50.812;4.422;2022-11-11T00:57:50;16.80;;;8.90;;
14484;SDS011;7328;50.812;4.422;2022-11-11T01:00:16;8.60;;;7.43;;
14484;SDS011;7328;50.812;4.422;2022-11-11T01:02:41;11.60;;;8.23;;
14484;SDS011;7328;50.812;4.422;2022-11-11T01:05:07;7.93;;;6.17;;
14484;SDS011;7328;50.812;4.422;2022-11-11T01:07:33;11.40;;;7.53;;
14484;SDS011;7328;50.812;4.422;2022-11-11T01:09:59;8.30;;;7.37;;
14484;SDS011;7328;50.812;4.422;2022-11-11T01:12:25;13.17;;;8.37;;
14484;SDS011;7328;50.812;4.422;2022-11-11T01:14:50;16.67;;;7.60;;
14484;SDS011;7328;50.812;4.422;2022-11-11T01:17:17;12.43;;;7.27;;
14484;SDS011;7328;50.812;4.422;2022-11-11T01:19:43;9.43;;;7.60;;
14484;SDS011;7328;50.812;4.422;2022-11-11T01:22:09;9.67;;;7.50;;
14484;SDS011;7328;50.812;4.422;2022-11-11T01:24:36;7.70;;;6.80;;
14484;SDS011;7328;50.812;4.422;2022-11-11T01:27:02;10.57;;;8.27;;
14484;SDS011;7328;50.812;4.422;2022-11-11T01:29:28;18.63;;;7.97;;
14484;SDS011;7328;50.812;4.422;2022-11-11T01:31:54;10.37;;;8.17;;
14484;SDS011;7328;50.812;4.422;2022-11-11T01:34:20;8.73;;;7.83;;
14484;SDS011;7328;50.812;4.422;2022-11-11T01:36:45;15.37;;;8.57;;
14484;SDS011;7328;50.812;4.422;2022-11-11T01:39:11;11.60;;;8.27;;
14484;SDS011;7328;50.812;4.422;2022-11-11T01:41:37;11.30;;;7.63;;
14484;SDS011;7328;50.812;4.422;2022-11-11T01:44:48;22.07;;;8.93;;
14484;SDS011;7328;50.812;4.422;2022-11-11T01:47:05;10.20;;;8.23;;
14484;SDS011;7328;50.812;4.422;2022-11-11T01:49:45;13.87;;;9.37;;
14484;SDS011;7328;50.812;4.422;2022-11-11T02:00:14;14.77;;;8.40;;
14484;SDS011;7328;50.812;4.422;2022-11-11T02:02:44;12.13;;;8.20;;
14484;SDS011;7328;50.812;4.422;2022-11-11T02:05:14;12.70;;;8.37;;
14484;SDS011;7328;50.812;4.422;2022-11-11T02:08:05;12.67;;;8.27;;
14484;SDS011;7328;50.812;4.422;2022-11-11T02:10:35;9.43;;;7.90;;
14484;SDS011;7328;50.812;4.422;2022-11-11T02:13:04;11.20;;;8.67;;
14484;SDS011;7328;50.812;4.422;2022-11-11T02:15:49;14.93;;;8.03;;
14484;SDS011;7328;50.812;4.422;2022-11-11T02:18:14;9.67;;;8.13;;
14484;SDS011;7328;50.812;4.422;2022-11-11T02:20:42;11.00;;;9.03;;
14484;SDS011;7328;50.812;4.422;2022-11-11T02:25:52;14.17;;;9.87;;
14484;SDS011;7328;50.812;4.422;2022-11-11T02:28:21;10.90;;;8.90;;
14484;SDS011;7328;50.812;4.422;2022-11-11T02:30:49;10.97;;;7.93;;
14484;SDS011;7328;50.812;4.422;2022-11-11T02:33:15;14.90;;;8.80;;
14484;SDS011;7328;50.812;4.422;2022-11-11T02:35:44;13.17;;;8.30;;
14484;SDS011;7328;50.812;4.422;2022-11-11T02:38:20;11.20;;;8.40;;
14484;SDS011;7328;50.812;4.422;2022-11-11T02:40:46;18.77;;;9.03;;
14484;SDS011;7328;50.812;4.422;2022-11-11T02:43:31;11.00;;;9.40;;
14484;SDS011;7328;50.812;4.422;2022-11-11T02:45:57;14.00;;;8.73;;
14484;SDS011;7328;50.812;4.422;2022-11-11T02:48:24;14.80;;;9.03;;
14484;SDS011;7328;50.812;4.422;2022-11-11T02:50:50;10.10;;;8.13;;
14484;SDS011;7328;50.812;4.422;2022-11-11T02:53:16;9.53;;;8.33;;
14484;SDS011;7328;50.812;4.422;2022-11-11T02:55:42;11.77;;;8.17;;
14484;SDS011;7328;50.812;4.422;2022-11-11T02:58:08;11.30;;;7.83;;
14484;SDS011;7328;50.812;4.422;2022-11-11T03:00:34;10.27;;;9.17;;
14484;SDS011;7328;50.812;4.422;2022-11-11T03:03:00;12.03;;;9.27;;
14484;SDS011;7328;50.812;4.422;2022-11-11T03:05:26;11.63;;;8.37;;
14484;SDS011;7328;50.812;4.422;2022-11-11T03:07:52;12.07;;;8.23;;
14484;SDS011;7328;50.812;4.422;2022-11-11T03:10:17;10.93;;;8.53;;
14484;SDS011;7328;50.812;4.422;2022-11-11T03:12:43;10.50;;;7.70;;
14484;SDS011;7328;50.812;4.422;2022-11-11T03:15:09;15.63;;;10.23;;
14484;SDS011;7328;50.812;4.422;2022-11-11T03:17:35;11.03;;;8.07;;
14484;SDS011;7328;50.812;4.422;2022-11-11T03:20:05;11.23;;;8.17;;
14484;SDS011;7328;50.812;4.422;2022-11-11T03:25:29;13.33;;;6.90;;
14484;SDS011;7328;50.812;4.422;2022-11-11T03:28:08;10.23;;;7.73;;
14484;SDS011;7328;50.812;4.422;2022-11-11T03:30:39;11.67;;;7.50;;
14484;SDS011;7328;50.812;4.422;2022-11-11T03:33:06;13.33;;;8.23;;
14484;SDS011;7328;50.812;4.422;2022-11-11T03:35:32;8.90;;;6.60;;
14484;SDS011;7328;50.812;4.422;2022-11-11T03:37:59;9.13;;;8.23;;
14484;SDS011;7328;50.812;4.422;2022-11-11T03:40:43;14.90;;;10.13;;
14484;SDS011;7328;50.812;4.422;2022-11-11T03:43:10;17.43;;;8.30;;
14484;SDS011;7328;50.812;4.422;2022-11-11T03:45:37;8.30;;;7.50;;
14484;SDS011;7328;50.812;4.422;2022-11-11T03:48:03;13.53;;;9.20;;
14484;SDS011;7328;50.812;4.422;2022-11-11T03:50:29;9.20;;;7.50;;
14484;SDS011;7328;50.812;4.422;2022-11-11T03:52:55;10.67;;;7.30;;
14484;SDS011;7328;50.812;4.422;2022-11-11T03:55:21;10.90;;;7.50;;
14484;SDS011;7328;50.812;4.422;2022-11-11T03:57:47;9.37;;;6.53;;
14484;SDS011;7328;50.812;4.422;2022-11-11T04:00:14;11.87;;;7.47;;
14484;SDS011;7328;50.812;4.422;2022-11-11T04:02:41;9.63;;;6.90;;
14484;SDS011;7328;50.812;4.422;2022-11-11T04:05:25;14.30;;;7.70;;
14484;SDS011;7328;50.812;4.422;2022-11-11T04:08:11;11.77;;;5.90;;
14484;SDS011;7328;50.812;4.422;2022-11-11T04:11:00;8.10;;;6.23;;
14484;SDS011;7328;50.812;4.422;2022-11-11T04:13:31;9.53;;;6.77;;
14484;SDS011;7328;50.812;4.422;2022-11-11T04:16:16;13.60;;;7.33;;
14484;SDS011;7328;50.812;4.422;2022-11-11T04:18:42;7.27;;;6.47;;
14484;SDS011;7328;50.812;4.422;2022-11-11T04:21:26;7.23;;;6.63;;
14484;SDS011;7328;50.812;4.422;2022-11-11T04:24:07;12.87;;;7.00;;
14484;SDS011;7328;50.812;4.422;2022-11-11T04:26:53;8.33;;;7.07;;
14484;SDS011;7328;50.812;4.422;2022-11-11T04:29:20;8.07;;;6.97;;
14484;SDS011;7328;50.812;4.422;2022-11-11T04:31:59;8.30;;;6.20;;
14484;SDS011;7328;50.812;4.422;2022-11-11T04:34:51;11.97;;;6.87;;
14484;SDS011;7328;50.812;4.422;2022-11-11T04:37:22;8.27;;;6.70;;
14484;SDS011;7328;50.812;4.422;2022-11-11T04:39:49;7.47;;;6.47;;
14484;SDS011;7328;50.812;4.422;2022-11-11T04:42:34;13.43;;;7.60;;
14484;SDS011;7328;50.812;4.422;2022-11-11T04:45:00;11.47;;;7.17;;
14484;SDS011;7328;50.812;4.422;2022-11-11T04:47:52;9.47;;;6.97;;
14484;SDS011;7328;50.812;4.422;2022-11-11T04:50:18;11.50;;;6.70;;
14484;SDS011;7328;50.812;4.422;2022-11-11T04:52:43;7.23;;;6.53;;
14484;SDS011;7328;50.812;4.422;2022-11-11T04:55:09;14.63;;;6.20;;
14484;SDS011;7328;50.812;4.422;2022-11-11T04:57:53;8.07;;;6.93;;
14484;SDS011;7328;50.812;4.422;2022-11-11T05:00:19;10.57;;;7.57;;
14484;SDS011;7328;50.812;4.422;2022-11-11T05:02:45;9.80;;;6.43;;
14484;SDS011;7328;50.812;4.422;2022-11-11T05:05:29;7.70;;;6.90;;
14484;SDS011;7328;50.812;4.422;2022-11-11T05:08:14;8.93;;;6.87;;
14484;SDS011;7328;50.812;4.422;2022-11-11T05:10:59;10.43;;;7.73;;
14484;SDS011;7328;50.812;4.422;2022-11-11T05:13:25;10.43;;;7.20;;
14484;SDS011;7328;50.812;4.422;2022-11-11T05:16:13;11.33;;;6.97;;
14484;SDS011;7328;50.812;4.422;2022-11-11T05:19:02;8.77;;;6.80;;
14484;SDS011;7328;50.812;4.422;2022-11-11T05:21:46;8.03;;;6.83;;
14484;SDS011;7328;50.812;4.422;2022-11-11T05:24:12;8.77;;;7.37;;
14484;SDS011;7328;50.812;4.422;2022-11-11T05:26:56;11.00;;;7.03;;
14484;SDS011;7328;50.812;4.422;2022-11-11T05:29:21;11.53;;;7.83;;
14484;SDS011;7328;50.812;4.422;2022-11-11T05:31:47;16.47;;;8.57;;
14484;SDS011;7328;50.812;4.422;2022-11-11T05:34:13;9.43;;;7.77;;
14484;SDS011;7328;50.812;4.422;2022-11-11T05:36:38;10.43;;;8.47;;
14484;SDS011;7328;50.812;4.422;2022-11-11T05:39:04;12.73;;;8.57;;
14484;SDS011;7328;50.812;4.422;2022-11-11T05:41:30;8.83;;;8.03;;
14484;SDS011;7328;50.812;4.422;2022-11-11T05:43:56;9.20;;;7.73;;
14484;SDS011;7328;50.812;4.422;2022-11-11T05:46:21;9.80;;;8.43;;
14484;SDS011;7328;50.812;4.422;2022-11-11T05:48:47;16.73;;;8.57;;
14484;SDS011;7328;50.812;4.422;2022-11-11T05:51:31;11.77;;;9.17;;
14484;SDS011;7328;50.812;4.422;2022-11-11T05:53:57;15.13;;;9.67;;
14484;SDS011;7328;50.812;4.422;2022-11-11T05:56:23;12.03;;;9.97;;
14484;SDS011;7328;50.812;4.422;2022-11-11T05:58:49;15.53;;;10.30;;
14484;SDS011;7328;50.812;4.422;2022-11-11T06:01:15;12.30;;;9.40;;
14484;SDS011;7328;50.812;4.422;2022-11-11T06:03:41;15.60;;;11.90;;
14484;SDS011;7328;50.812;4.422;2022-11-11T06:06:06;13.83;;;11.40;;
14484;SDS011;7328;50.812;4.422;2022-11-11T06:08:32;11.90;;;9.73;;
14484;SDS011;7328;50.812;4.422;2022-11-11T06:10:58;13.67;;;9.47;;
14484;SDS011;7328;50.812;4.422;2022-11-11T06:13:24;19.90;;;10.43;;
14484;SDS011;7328;50.812;4.422;2022-11-11T06:15:49;19.10;;;10.57;;
14484;SDS011;7328;50.812;4.422;2022-11-11T06:18:15;14.23;;;10.13;;
14484;SDS011;7328;50.812;4.422;2022-11-11T06:20:41;18.53;;;11.87;;
14484;SDS011;7328;50.812;4.422;2022-11-11T06:23:06;12.40;;;10.60;;
14484;SDS011;7328;50.812;4.422;2022-11-11T06:25:32;17.00;;;10.50;;
14484;SDS011;7328;50.812;4.422;2022-11-11T06:28:17;12.63;;;11.33;;
14484;SDS011;7328;50.812;4.422;2022-11-11T06:30:43;17.83;;;12.00;;
14484;SDS011;7328;50.812;4.422;2022-11-11T06:33:10;16.17;;;11.40;;
14484;SDS011;7328;50.812;4.422;2022-11-11T06:35:36;15.43;;;11.60;;
14484;SDS011;7328;50.812;4.422;2022-11-11T06:38:03;14.20;;;11.33;;
14484;SDS011;7328;50.812;4.422;2022-11-11T06:40:30;19.07;;;11.80;;
14484;SDS011;7328;50.812;4.422;2022-11-11T06:42:57;13.83;;;11.73;;
14484;SDS011;7328;50.812;4.422;2022-11-11T06:45:24;15.00;;;10.97;;
14484;SDS011;7328;50.812;4.422;2022-11-11T06:47:51;14.13;;;12.60;;
14484;SDS011;7328;50.812;4.422;2022-11-11T06:50:17;18.97;;;11.97;;
14484;SDS011;7328;50.812;4.422;2022-11-11T06:52:43;15.13;;;12.33;;
14484;SDS011;7328;50.812;4.422;2022-11-11T06:55:09;15.43;;;13.27;;
14484;SDS011;7328;50.812;4.422;2022-11-11T06:57:35;12.87;;;11.00;;
14484;SDS011;7328;50.812;4.422;2022-11-11T07:00:04;15.17;;;12.00;;
14484;SDS011;7328;50.812;4.422;2022-11-11T07:02:31;21.57;;;13.73;;
14484;SDS011;7328;50.812;4.422;2022-11-11T07:04:57;16.97;;;12.43;;
14484;SDS011;7328;50.812;4.422;2022-11-11T07:07:24;17.57;;;13.40;;
14484;SDS011;7328;50.812;4.422;2022-11-11T07:09:50;19.53;;;13.13;;
14484;SDS011;7328;50.812;4.422;2022-11-11T07:12:16;17.97;;;10.93;;
14484;SDS011;7328;50.812;4.422;2022-11-11T07:14:42;15.23;;;11.50;;
14484;SDS011;7328;50.812;4.422;2022-11-11T07:17:08;15.33;;;11.57;;
14484;SDS011;7328;50.812;4.422;2022-11-11T07:19:34;27.43;;;13.03;;
14484;SDS011;7328;50.812;4.422;2022-11-11T07:21:59;18.10;;;12.23;;
14484;SDS011;7328;50.812;4.422;2022-11-11T07:24:25;14.43;;;11.70;;
14484;SDS011;7328;50.812;4.422;2022-11-11T07:26:51;14.63;;;12.43;;
14484;SDS011;7328;50.812;4.422;2022-11-11T07:29:17;17.17;;;12.30;;
14484;SDS011;7328;50.812;4.422;2022-11-11T07:31:42;12.83;;;11.50;;
14484;SDS011;7328;50.812;4.422;2022-11-11T07:34:08;14.53;;;12.13;;
14484;SDS011;7328;50.812;4.422;2022-11-11T07:36:34;14.67;;;10.70;;
14484;SDS011;7328;50.812;4.422;2022-11-11T07:39:00;13.73;;;10.47;;
14484;SDS011;7328;50.812;4.422;2022-11-11T07:41:26;18.17;;;13.33;;
14484;SDS011;7328;50.812;4.422;2022-11-11T07:43:52;19.73;;;12.80;;
14484;SDS011;7328;50.812;4.422;2022-11-11T07:46:17;14.80;;;11.33;;
14484;SDS011;7328;50.812;4.422;2022-11-11T07:48:43;16.13;;;11.70;;
14484;SDS011;7328;50.812;4.422;2022-11-11T07:51:09;16.30;;;10.77;;
14484;SDS011;7328;50.812;4.422;2022-11-11T07:53:35;15.90;;;10.87;;
14484;SDS011;7328;50.812;4.422;2022-11-11T07:56:01;16.00;;;10.37;;
14484;SDS011;7328;50.812;4.422;2022-11-11T07:58:27;12.03;;;9.23;;
14484;SDS011;7328;50.812;4.422;2022-11-11T08:00:52;11.93;;;10.20;;
14484;SDS011;7328;50.812;4.422;2022-11-11T08:03:18;13.10;;;10.17;;
14484;SDS011;7328;50.812;4.422;2022-11-11T08:05:44;15.17;;;10.80;;
14484;SDS011;7328;50.812;4.422;2022-11-11T08:08:10;13.70;;;11.07;;
14484;SDS011;7328;50.812;4.422;2022-11-11T08:10:35;13.10;;;11.20;;
14484;SDS011;7328;50.812;4.422;2022-11-11T08:13:02;15.13;;;10.77;;
14484;SDS011;7328;50.812;4.422;2022-11-11T08:15:46;13.87;;;9.60;;
14484;SDS011;7328;50.812;4.422;2022-11-11T08:18:13;14.87;;;9.47;;
14484;SDS011;7328;50.812;4.422;2022-11-11T08:20:39;13.90;;;9.47;;
14484;SDS011;7328;50.812;4.422;2022-11-11T08:23:04;10.47;;;9.47;;
14484;SDS011;7328;50.812;4.422;2022-11-11T08:25:35;18.07;;;11.73;;
14484;SDS011;7328;50.812;4.422;2022-11-11T08:28:02;15.00;;;11.17;;
14484;SDS011;7328;50.812;4.422;2022-11-11T08:30:29;13.73;;;8.70;;
14484;SDS011;7328;50.812;4.422;2022-11-11T08:32:59;13.13;;;10.80;;
14484;SDS011;7328;50.812;4.422;2022-11-11T08:35:26;17.10;;;10.00;;
14484;SDS011;7328;50.812;4.422;2022-11-11T08:37:52;10.37;;;7.97;;
14484;SDS011;7328;50.812;4.422;2022-11-11T08:40:19;12.47;;;9.97;;
14484;SDS011;7328;50.812;4.422;2022-11-11T08:42:45;10.23;;;9.13;;
14484;SDS011;7328;50.812;4.422;2022-11-11T08:45:11;10.97;;;8.83;;
14484;SDS011;7328;50.812;4.422;2022-11-11T08:47:38;13.80;;;9.37;;
14484;SDS011;7328;50.812;4.422;2022-11-11T08:50:04;13.20;;;9.23;;
14484;SDS011;7328;50.812;4.422;2022-11-11T08:52:31;11.20;;;8.80;;
14484;SDS011;7328;50.812;4.422;2022-11-11T08:54:57;9.70;;;7.17;;
14484;SDS011;7328;50.812;4.422;2022-11-11T08:57:25;13.77;;;8.90;;
14484;SDS011;7328;50.812;4.422;2022-11-11T08:59:51;11.37;;;7.77;;
14484;SDS011;7328;50.812;4.422;2022-11-11T09:02:17;13.13;;;9.43;;
14484;SDS011;7328;50.812;4.422;2022-11-11T09:04:43;10.60;;;9.00;;
14484;SDS011;7328;50.812;4.422;2022-11-11T09:07:09;8.83;;;7.57;;
14484;SDS011;7328;50.812;4.422;2022-11-11T09:09:36;11.17;;;6.43;;
14484;SDS011;7328;50.812;4.422;2022-11-11T09:12:02;8.37;;;7.47;;
14484;SDS011;7328;50.812;4.422;2022-11-11T09:14:28;14.13;;;8.27;;
14484;SDS011;7328;50.812;4.422;2022-11-11T09:16:53;8.37;;;6.63;;
14484;SDS011;7328;50.812;4.422;2022-11-11T09:19:19;7.70;;;6.83;;
14484;SDS011;7328;50.812;4.422;2022-11-11T09:21:45;8.30;;;7.00;;
14484;SDS011;7328;50.812;4.422;2022-11-11T09:24:10;6.67;;;5.97;;
14484;SDS011;7328;50.812;4.422;2022-11-11T09:26:36;6.83;;;5.13;;
14484;SDS011;7328;50.812;4.422;2022-11-11T09:29:02;14.63;;;7.13;;
14484;SDS011;7328;50.812;4.422;2022-11-11T09:31:28;7.80;;;6.50;;
14484;SDS011;7328;50.812;4.422;2022-11-11T09:33:53;6.30;;;5.70;;
14484;SDS011;7328;50.812;4.422;2022-11-11T09:36:19;5.73;;;5.03;;
14484;SDS011;7328;50.812;4.422;2022-11-11T09:38:45;5.47;;;4.90;;
14484;SDS011;7328;50.812;4.422;2022-11-11T09:41:17;4.13;;;3.70;;
14484;SDS011;7328;50.812;4.422;2022-11-11T09:43:56;6.70;;;5.57;;
14484;SDS011;7328;50.812;4.422;2022-11-11T09:54:31;5.37;;;4.63;;
14484;SDS011;7328;50.812;4.422;2022-11-11T09:57:31;4.83;;;4.23;;
14484;SDS011;7328;50.812;4.422;2022-11-11T10:00:02;4.60;;;3.87;;
14484;SDS011;7328;50.812;4.422;2022-11-11T10:05:11;3.83;;;3.40;;
14484;SDS011;7328;50.812;4.422;2022-11-11T10:10:28;3.27;;;3.03;;
14484;SDS011;7328;50.812;4.422;2022-11-11T10:13:12;3.37;;;3.17;;
14484;SDS011;7328;50.812;4.422;2022-11-11T10:15:48;4.50;;;2.93;;
14484;SDS011;7328;50.812;4.422;2022-11-11T10:21:11;2.97;;;2.50;;
14484;SDS011;7328;50.812;4.422;2022-11-11T10:23:39;3.03;;;2.83;;
14484;SDS011;7328;50.812;4.422;2022-11-11T10:26:21;3.43;;;2.67;;
14484;SDS011;7328;50.812;4.422;2022-11-11T10:28:59;2.80;;;2.60;;
14484;SDS011;7328;50.812;4.422;2022-11-11T10:31:27;2.73;;;2.53;;
14484;SDS011;7328;50.812;4.422;2022-11-11T10:34:11;2.20;;;2.00;;
14484;SDS011;7328;50.812;4.422;2022-11-11T10:36:42;7.37;;;3.20;;
14484;SDS011;7328;50.812;4.422;2022-11-11T10:39:10;1.80;;;1.70;;
14484;SDS011;7328;50.812;4.422;2022-11-11T10:41:48;2.83;;;2.17;;
14484;SDS011;7328;50.812;4.422;2022-11-11T10:44:24;2.17;;;1.80;;
14484;SDS011;7328;50.812;4.422;2022-11-11T10:46:57;5.60;;;1.73;;
14484;SDS011;7328;50.812;4.422;2022-11-11T10:49:40;1.40;;;1.30;;
14484;SDS011;7328;50.812;4.422;2022-11-11T10:52:18;2.20;;;2.00;;
14484;SDS011;7328;50.812;4.422;2022-11-11T10:57:36;1.80;;;1.70;;
14484;SDS011;7328;50.812;4.422;2022-11-11T11:00:06;1.97;;;1.43;;
14484;SDS011;7328;50.812;4.422;2022-11-11T11:05:39;4.27;;;2.70;;
14484;SDS011;7328;50.812;4.422;2022-11-11T11:08:33;3.33;;;1.93;;
14484;SDS011;7328;50.812;4.422;2022-11-11T11:11:19;8.03;;;4.93;;
14484;SDS011;7328;50.812;4.422;2022-11-11T11:14:02;2.23;;;2.07;;
14484;SDS011;7328;50.812;4.422;2022-11-11T11:16:38;3.43;;;2.10;;
14484;SDS011;7328;50.812;4.422;2022-11-11T11:21:54;2.07;;;1.87;;
14484;SDS011;7328;50.812;4.422;2022-11-11T11:24:27;2.40;;;2.07;;
14484;SDS011;7328;50.812;4.422;2022-11-11T11:26:56;2.87;;;2.00;;
14484;SDS011;7328;50.812;4.422;2022-11-11T11:32:19;2.13;;;1.50;;
14484;SDS011;7328;50.812;4.422;2022-11-11T11:34:52;3.10;;;1.60;;
14484;SDS011;7328;50.812;4.422;2022-11-11T11:37:19;3.93;;;1.90;;
14484;SDS011;7328;50.812;4.422;2022-11-11T11:39:47;4.13;;;2.03;;
14484;SDS011;7328;50.812;4.422;2022-11-11T11:42:30;2.60;;;1.40;;
14484;SDS011;7328;50.812;4.422;2022-11-11T11:45:19;1.50;;;1.40;;
14484;SDS011;7328;50.812;4.422;2022-11-11T11:47:48;2.83;;;1.37;;
14484;SDS011;7328;50.812;4.422;2022-11-11T11:50:50;4.80;;;1.73;;
14484;SDS011;7328;50.812;4.422;2022-11-11T12:01:16;2.30;;;1.10;;
14484;SDS011;7328;50.812;4.422;2022-11-11T12:03:54;4.10;;;2.27;;
14484;SDS011;7328;50.812;4.422;2022-11-11T12:06:48;1.43;;;1.33;;
14484;SDS011;7328;50.812;4.422;2022-11-11T12:09:30;9.33;;;2.20;;
14484;SDS011;7328;50.812;4.422;2022-11-11T12:17:35;1.43;;;1.30;;
14484;SDS011;7328;50.812;4.422;2022-11-11T12:30:39;2.47;;;1.57;;
14484;SDS011;7328;50.812;4.422;2022-11-11T12:42:07;1.43;;;1.33;;
14484;SDS011;7328;50.812;4.422;2022-11-11T12:45:21;1.53;;;1.30;;
14484;SDS011;7328;50.812;4.422;2022-11-11T12:50:49;1.77;;;1.23;;
14484;SDS011;7328;50.812;4.422;2022-11-11T12:53:53;1.83;;;1.57;;
14484;SDS011;7328;50.812;4.422;2022-11-11T12:56:44;1.77;;;1.67;;
14484;SDS011;7328;50.812;4.422;2022-11-11T13:10:44;2.90;;;2.37;;
14484;SDS011;7328;50.812;4.422;2022-11-11T13:16:19;2.43;;;1.10;;
14484;SDS011;7328;50.812;4.422;2022-11-11T13:18:57;1.80;;;1.53;;
14484;SDS011;7328;50.812;4.422;2022-11-11T13:24:19;1.77;;;1.30;;
14484;SDS011;7328;50.812;4.422;2022-11-11T13:26:48;3.43;;;1.70;;
14484;SDS011;7328;50.812;4.422;2022-11-11T13:32:32;2.87;;;1.07;;
14484;SDS011;7328;50.812;4.422;2022-11-11T13:35:50;4.70;;;1.50;;
14484;SDS011;7328;50.812;4.422;2022-11-11T13:37:50;2.50;;;2.20;;
14484;SDS011;7328;50.812;4.422;2022-11-11T13:42:58;2.23;;;1.53;;
14484;SDS011;7328;50.812;4.422;2022-11-11T13:45:29;4.13;;;1.47;;
14484;SDS011;7328;50.812;4.422;2022-11-11T13:48:18;2.80;;;1.10;;
14484;SDS011;7328;50.812;4.422;2022-11-11T13:50:48;2.77;;;1.30;;
14484;SDS011;7328;50.812;4.422;2022-11-11T13:53:35;1.70;;;1.53;;
14484;SDS011;7328;50.812;4.422;2022-11-11T13:56:02;1.73;;;1.63;;
14484;SDS011;7328;50.812;4.422;2022-11-11T13:58:30;1.70;;;1.03;;
14484;SDS011;7328;50.812;4.422;2022-11-11T14:01:03;3.20;;;1.33;;
14484;SDS011;7328;50.812;4.422;2022-11-11T14:08:51;3.13;;;1.57;;
14484;SDS011;7328;50.812;4.422;2022-11-11T14:13:49;1.00;;;1.00;;
14484;SDS011;7328;50.812;4.422;2022-11-11T14:21:42;3.43;;;1.47;;
14484;SDS011;7328;50.812;4.422;2022-11-11T14:27:00;0.93;;;0.93;;
14484;SDS011;7328;50.812;4.422;2022-11-11T14:29:47;3.33;;;1.40;;
14484;SDS011;7328;50.812;4.422;2022-11-11T14:32:21;1.73;;;1.63;;
14484;SDS011;7328;50.812;4.422;2022-11-11T14:40:11;2.37;;;1.93;;
14484;SDS011;7328;50.812;4.422;2022-11-11T14:42:48;2.07;;;1.20;;
14484;SDS011;7328;50.812;4.422;2022-11-11T14:47:54;1.23;;;1.10;;
14484;SDS011;7328;50.812;4.422;2022-11-11T14:50:42;3.13;;;1.30;;
14484;SDS011;7328;50.812;4.422;2022-11-11T14:53:08;1.63;;;1.17;;
14484;SDS011;7328;50.812;4.422;2022-11-11T14:55:42;3.80;;;1.57;;
14484;SDS011;7328;50.812;4.422;2022-11-11T14:58:17;5.43;;;1.37;;
14484;SDS011;7328;50.812;4.422;2022-11-11T15:05:54;1.40;;;1.30;;
14484;SDS011;7328;50.812;4.422;2022-11-11T15:14:21;4.03;;;1.97;;
14484;SDS011;7328;50.812;4.422;2022-11-11T15:25:41;2.37;;;1.60;;
14484;SDS011;7328;50.812;4.422;2022-11-11T15:39:40;2.07;;;1.97;;
14484;SDS011;7328;50.812;4.422;2022-11-11T15:42:21;5.40;;;1.83;;
14484;SDS011;7328;50.812;4.422;2022-11-11T15:44:58;2.50;;;2.00;;
14484;SDS011;7328;50.812;4.422;2022-11-11T15:47:26;8.43;;;2.30;;
14484;SDS011;7328;50.812;4.422;2022-11-11T15:49:53;2.47;;;2.23;;
14484;SDS011;7328;50.812;4.422;2022-11-11T15:54:48;2.97;;;2.77;;
14484;SDS011;7328;50.812;4.422;2022-11-11T15:59:54;7.80;;;3.27;;
14484;SDS011;7328;50.812;4.422;2022-11-11T16:02:22;2.93;;;2.40;;
14484;SDS011;7328;50.812;4.422;2022-11-11T16:04:52;5.13;;;2.80;;
14484;SDS011;7328;50.812;4.422;2022-11-11T16:07:35;2.77;;;2.57;;
14484;SDS011;7328;50.812;4.422;2022-11-11T16:10:07;4.90;;;2.67;;
14484;SDS011;7328;50.812;4.422;2022-11-11T16:12:43;2.80;;;2.60;;
14484;SDS011;7328;50.812;4.422;2022-11-11T16:18:31;4.47;;;3.27;;
14484;SDS011;7328;50.812;4.422;2022-11-11T16:21:09;3.03;;;2.63;;
14484;SDS011;7328;50.812;4.422;2022-11-11T16:23:37;3.20;;;2.63;;
14484;SDS011;7328;50.812;4.422;2022-11-11T16:26:05;3.50;;;2.87;;
14484;SDS011;7328;50.812;4.422;2022-11-11T16:28:37;4.97;;;3.57;;
14484;SDS011;7328;50.812;4.422;2022-11-11T16:31:49;4.57;;;3.40;;
14484;SDS011;7328;50.812;4.422;2022-11-11T16:37:08;4.47;;;3.27;;
14484;SDS011;7328;50.812;4.422;2022-11-11T16:39:36;5.77;;;4.20;;
14484;SDS011;7328;50.812;4.422;2022-11-11T16:42:35;3.67;;;3.37;;
14484;SDS011;7328;50.812;4.422;2022-11-11T16:44:56;4.57;;;3.53;;
14484;SDS011;7328;50.812;4.422;2022-11-11T16:52:52;6.63;;;3.80;;
14484;SDS011;7328;50.812;4.422;2022-11-11T16:55:31;13.83;;;4.93;;
14484;SDS011;7328;50.812;4.422;2022-11-11T16:58:02;4.60;;;4.20;;
14484;SDS011;7328;50.812;4.422;2022-11-11T17:00:40;5.90;;;4.90;;
14484;SDS011;7328;50.812;4.422;2022-11-11T17:03:14;4.40;;;3.80;;
14484;SDS011;7328;50.812;4.422;2022-11-11T17:08:30;5.10;;;4.60;;
14484;SDS011;7328;50.812;4.422;2022-11-11T17:11:00;6.07;;;5.50;;
14484;SDS011;7328;50.812;4.422;2022-11-11T17:13:34;7.03;;;5.17;;
14484;SDS011;7328;50.812;4.422;2022-11-11T17:16:03;9.47;;;4.97;;
14484;SDS011;7328;50.812;4.422;2022-11-11T17:18:35;5.67;;;5.17;;
14484;SDS011;7328;50.812;4.422;2022-11-11T17:21:02;9.07;;;4.87;;
14484;SDS011;7328;50.812;4.422;2022-11-11T17:23:29;7.90;;;5.83;;
14484;SDS011;7328;50.812;4.422;2022-11-11T17:25:55;12.27;;;6.07;;
14484;SDS011;7328;50.812;4.422;2022-11-11T17:28:24;9.80;;;5.33;;
14484;SDS011;7328;50.812;4.422;2022-11-11T17:30:50;7.00;;;5.73;;
14484;SDS011;7328;50.812;4.422;2022-11-11T17:33:16;8.47;;;7.10;;
14484;SDS011;7328;50.812;4.422;2022-11-11T17:35:51;7.77;;;6.10;;
14484;SDS011;7328;50.812;4.422;2022-11-11T17:38:17;7.03;;;6.40;;
14484;SDS011;7328;50.812;4.422;2022-11-11T17:40:43;7.87;;;6.67;;
14484;SDS011;7328;50.812;4.422;2022-11-11T17:43:10;6.50;;;5.90;;
14484;SDS011;7328;50.812;4.422;2022-11-11T17:45:36;7.80;;;5.80;;
14484;SDS011;7328;50.812;4.422;2022-11-11T17:48:02;9.43;;;8.47;;
14484;SDS011;7328;50.812;4.422;2022-11-11T17:50:28;9.93;;;7.80;;
14484;SDS011;7328;50.812;4.422;2022-11-11T17:52:54;11.63;;;9.17;;
14484;SDS011;7328;50.812;4.422;2022-11-11T17:55:21;11.83;;;8.67;;
14484;SDS011;7328;50.812;4.422;2022-11-11T17:57:47;13.43;;;7.60;;
14484;SDS011;7328;50.812;4.422;2022-11-11T18:00:13;9.23;;;7.70;;
14484;SDS011;7328;50.812;4.422;2022-11-11T18:02:40;12.47;;;7.20;;
14484;SDS011;7328;50.812;4.422;2022-11-11T18:05:06;9.07;;;7.27;;
14484;SDS011;7328;50.812;4.422;2022-11-11T18:07:32;11.97;;;7.53;;
14484;SDS011;7328;50.812;4.422;2022-11-11T18:09:58;10.30;;;7.80;;
14484;SDS011;7328;50.812;4.422;2022-11-11T18:12:26;9.33;;;8.33;;
14484;SDS011;7328;50.812;4.422;2022-11-11T18:14:54;11.47;;;8.53;;
14484;SDS011;7328;50.812;4.422;2022-11-11T18:17:20;12.07;;;8.50;;
14484;SDS011;7328;50.812;4.422;2022-11-11T18:19:48;12.80;;;9.30;;